createdAt,value
2023-01-11T00:00:02.606Z,4.0
2023-01-11T00:02:02.636Z,3.0
2023-01-11T00:04:03.244Z,3.1
2023-01-11T00:06:04.413Z,3.5
2023-01-11T00:08:04.271Z,7.7
2023-01-11T00:10:04.393Z,4.5
2023-01-11T00:12:03.341Z,3.8
2023-01-11T00:14:02.612Z,4.4
2023-01-11T00:16:06.858Z,6.2
2023-01-11T00:18:03.771Z,4.8
2023-01-11T00:20:03.616Z,6.4
2023-01-11T00:22:03.086Z,4.3
2023-01-11T00:24:03.385Z,5.8
2023-01-11T00:26:03.010Z,5.9
2023-01-11T00:28:02.661Z,9.4
2023-01-11T00:30:03.783Z,3.4
2023-01-11T00:32:02.426Z,4.3
2023-01-11T00:34:02.482Z,6.1
2023-01-11T00:36:02.816Z,9.2
2023-01-11T00:38:03.187Z,10.8
2023-01-11T00:40:03.217Z,11.4
2023-01-11T00:42:12.146Z,13.2
2023-01-11T00:44:13.269Z,5.3
2023-01-11T00:46:12.004Z,6.6
2023-01-11T00:48:05.528Z,4.1
2023-01-11T00:50:03.594Z,9.6
2023-01-11T00:52:06.717Z,5.5
2023-01-11T00:54:02.776Z,4.6
2023-01-11T00:56:02.451Z,5.1
2023-01-11T00:58:03.361Z,4.9
2023-01-11T01:00:03.485Z,4.6
2023-01-11T01:02:03.166Z,4.1
2023-01-11T01:04:03.834Z,4.0
2023-01-11T01:06:02.767Z,4.7
2023-01-11T01:08:02.402Z,5.2
2023-01-11T01:10:03.460Z,6.3
2023-01-11T01:12:03.552Z,5.4
2023-01-11T01:14:11.915Z,5.9
2023-01-11T01:16:03.035Z,6.0
2023-01-11T01:18:02.684Z,3.7
2023-01-11T01:20:03.253Z,4.4
2023-01-11T01:22:02.448Z,4.0
2023-01-11T01:24:02.776Z,4.1
2023-01-11T01:26:03.468Z,3.8
2023-01-11T01:28:02.618Z,7.9
2023-01-11T01:30:02.579Z,4.8
2023-01-11T01:32:03.000Z,5.4
2023-01-11T01:34:03.197Z,7.2
2023-01-11T01:36:04.420Z,7.2
2023-01-11T01:38:02.978Z,8.4
2023-01-11T01:40:02.745Z,7.9
2023-01-11T01:42:02.967Z,8.9
2023-01-11T01:44:05.153Z,8.7
2023-01-11T01:46:02.523Z,9.4
2023-01-11T01:48:05.598Z,10.3
2023-01-11T01:50:10.275Z,11.1
2023-01-11T01:52:02.963Z,13.1
2023-01-11T01:54:07.085Z,12.4
2023-01-11T01:56:06.549Z,10.9
2023-01-11T01:58:07.726Z,11.6
2023-01-11T02:00:07.545Z,9.8
2023-01-11T02:02:02.671Z,9.3
2023-01-11T02:04:07.159Z,11.9
2023-01-11T02:06:02.731Z,6.9
2023-01-11T02:08:08.945Z,6.7
2023-01-11T02:10:07.554Z,6.0
2023-01-11T02:12:04.884Z,6.7
2023-01-11T02:14:06.901Z,6.9
2023-01-11T02:16:08.684Z,5.0
2023-01-11T02:18:03.843Z,5.7
2023-01-11T02:20:12.698Z,5.6
2023-01-11T02:22:22.723Z,4.7
2023-01-11T02:24:20.277Z,3.7
2023-01-11T02:26:21.643Z,4.2
2023-01-11T02:28:11.498Z,3.9
2023-01-11T02:30:13.358Z,5.0
2023-01-11T02:32:12.953Z,3.4
2023-01-11T02:34:16.083Z,3.7
2023-01-11T02:36:11.638Z,4.0
2023-01-11T02:38:11.549Z,3.4
2023-01-11T02:40:09.646Z,3.8
2023-01-11T02:42:20.949Z,3.3
2023-01-11T02:44:20.451Z,4.3
2023-01-11T02:46:09.681Z,2.4
2023-01-11T02:48:10.810Z,3.3
2023-01-11T02:50:11.816Z,3.6
2023-01-11T02:52:08.730Z,4.2
2023-01-11T02:54:07.838Z,3.1
2023-01-11T02:56:08.162Z,3.8
2023-01-11T02:58:06.184Z,3.4
2023-01-11T03:00:03.008Z,4.6
2023-01-11T03:02:03.584Z,3.5
2023-01-11T03:04:02.445Z,3.4
2023-01-11T03:06:08.706Z,4.2
2023-01-11T03:08:12.529Z,3.4
2023-01-11T03:10:13.870Z,3.4
2023-01-11T03:12:31.072Z,4.2
2023-01-11T03:14:09.749Z,6.6
2023-01-11T03:16:12.143Z,3.4
2023-01-11T03:18:16.597Z,4.9
2023-01-11T03:20:08.146Z,4.0
2023-01-11T03:22:07.669Z,3.9
2023-01-11T03:24:14.062Z,4.2
2023-01-11T03:26:11.778Z,3.4
2023-01-11T03:28:09.669Z,4.3
2023-01-11T03:30:09.432Z,5.2
2023-01-11T03:32:16.053Z,5.3
2023-01-11T03:34:12.020Z,5.3
2023-01-11T03:36:11.490Z,3.6
2023-01-11T03:38:07.285Z,5.6
2023-01-11T03:40:09.720Z,4.1
2023-01-11T03:42:07.234Z,4.4
2023-01-11T03:44:05.786Z,5.0
2023-01-11T03:46:10.017Z,3.9
2023-01-11T03:48:06.445Z,3.9
2023-01-11T03:50:06.301Z,3.9
2023-01-11T03:52:06.609Z,4.8
2023-01-11T03:54:07.223Z,3.6
2023-01-11T03:56:07.228Z,3.8
2023-01-11T03:58:03.410Z,3.3
2023-01-11T04:00:05.213Z,4.3
2023-01-11T04:02:02.786Z,3.2
2023-01-11T04:04:03.053Z,4.5
2023-01-11T04:06:03.469Z,3.8
2023-01-11T04:08:02.465Z,4.2
2023-01-11T04:10:03.552Z,3.6
2023-01-11T04:12:03.283Z,3.7
2023-01-11T04:14:02.476Z,3.1
2023-01-11T04:16:02.514Z,3.5
2023-01-11T04:18:05.008Z,3.7
2023-01-11T04:20:03.035Z,3.6
2023-01-11T04:22:02.959Z,3.7
2023-01-11T04:24:02.820Z,2.7
2023-01-11T04:26:02.987Z,4.3
2023-01-11T04:28:02.455Z,5.4
2023-01-11T04:30:02.964Z,3.3
2023-01-11T04:32:03.296Z,3.7
2023-01-11T04:34:02.616Z,5.3
2023-01-11T04:36:06.548Z,4.7
2023-01-11T04:38:02.416Z,3.7
2023-01-11T04:40:03.470Z,3.6
2023-01-11T04:42:12.072Z,3.3
2023-01-11T04:44:02.453Z,2.7
2023-01-11T04:46:02.980Z,3.4
2023-01-11T04:48:03.641Z,3.8
2023-01-11T04:50:02.410Z,4.2
2023-01-11T04:52:02.792Z,3.2
2023-01-11T04:54:02.460Z,3.6
2023-01-11T04:56:03.132Z,3.1
2023-01-11T04:58:02.470Z,4.7
2023-01-11T05:00:10.552Z,6.1
2023-01-11T05:02:02.990Z,5.7
2023-01-11T05:04:02.458Z,8.4
2023-01-11T05:06:04.411Z,4.3
2023-01-11T05:08:02.473Z,4.0
2023-01-11T05:10:02.537Z,4.0
2023-01-11T05:12:03.637Z,5.0
2023-01-11T05:14:03.029Z,4.8
2023-01-11T05:16:02.424Z,3.9
2023-01-11T05:18:02.666Z,4.6
2023-01-11T05:20:02.570Z,3.5
2023-01-11T05:22:02.420Z,2.9
2023-01-11T05:24:06.237Z,4.0
2023-01-11T05:26:04.678Z,4.2
2023-01-11T05:28:02.433Z,2.5
2023-01-11T05:30:02.463Z,3.7
2023-01-11T05:32:02.531Z,2.9
2023-01-11T05:34:03.252Z,4.4
2023-01-11T05:36:05.834Z,3.3
2023-01-11T05:38:02.405Z,4.5
2023-01-11T05:40:02.433Z,2.9
2023-01-11T05:42:03.069Z,5.5
2023-01-11T05:44:11.855Z,5.1
2023-01-11T05:46:02.467Z,3.1
2023-01-11T05:48:03.491Z,4.0
2023-01-11T05:50:02.425Z,3.7
2023-01-11T05:52:02.428Z,2.5
2023-01-11T05:54:05.079Z,2.5
2023-01-11T05:56:02.446Z,3.9
2023-01-11T05:58:05.753Z,5.9
2023-01-11T06:00:04.173Z,3.0
2023-01-11T06:02:03.027Z,2.3
2023-01-11T06:04:02.973Z,2.7
2023-01-11T06:06:03.006Z,2.9
2023-01-11T06:08:03.015Z,3.5
2023-01-11T06:10:03.344Z,5.3
2023-01-11T06:12:02.638Z,4.5
2023-01-11T06:14:02.409Z,2.9
2023-01-11T06:16:04.499Z,2.8
2023-01-11T06:18:02.662Z,2.5
2023-01-11T06:20:02.407Z,2.5
2023-01-11T06:22:02.659Z,2.1
2023-01-11T06:24:03.214Z,2.9
2023-01-11T06:26:04.271Z,5.4
2023-01-11T06:28:02.416Z,2.8
2023-01-11T06:30:03.233Z,4.9
2023-01-11T06:32:02.427Z,3.1
2023-01-11T06:34:02.603Z,2.1
2023-01-11T06:36:06.052Z,2.5
2023-01-11T06:38:03.384Z,2.5
2023-01-11T06:40:02.400Z,3.7
2023-01-11T06:42:02.660Z,3.5
2023-01-11T06:44:02.666Z,3.0
2023-01-11T06:46:03.240Z,3.3
2023-01-11T06:48:02.644Z,2.9
2023-01-11T06:50:02.428Z,2.7
2023-01-11T06:52:03.053Z,3.9
2023-01-11T06:54:02.690Z,2.3
2023-01-11T06:56:02.452Z,4.1
2023-01-11T06:58:03.290Z,2.2
2023-01-11T07:00:03.491Z,2.5
2023-01-11T07:02:02.436Z,3.5
2023-01-11T07:04:02.429Z,3.6
2023-01-11T07:06:04.029Z,2.6
2023-01-11T07:08:03.860Z,3.5
2023-01-11T07:10:03.353Z,2.5
2023-01-11T07:12:02.642Z,3.3
2023-01-11T07:14:02.395Z,2.2
2023-01-11T07:16:02.483Z,3.5
2023-01-11T07:18:03.324Z,4.8
2023-01-11T07:20:03.811Z,2.8
2023-01-11T07:22:02.457Z,2.5
2023-01-11T07:24:02.717Z,3.0
2023-01-11T07:26:03.454Z,3.4
2023-01-11T07:28:05.561Z,3.7
2023-01-11T07:30:04.065Z,3.2
2023-01-11T07:32:04.384Z,2.9
2023-01-11T07:34:02.462Z,4.1
2023-01-11T07:36:05.297Z,3.1
2023-01-11T07:38:07.206Z,2.7
2023-01-11T07:40:02.423Z,2.9
2023-01-11T07:42:13.274Z,5.5
2023-01-11T07:44:02.402Z,5.4
2023-01-11T07:46:02.547Z,3.6
2023-01-11T07:48:03.497Z,3.1
2023-01-11T07:50:03.213Z,4.9
2023-01-11T07:52:02.491Z,2.5
2023-01-11T07:54:03.545Z,2.3
2023-01-11T07:56:02.421Z,4.5
2023-01-11T07:58:02.966Z,2.2
2023-01-11T08:00:03.157Z,2.7
2023-01-11T08:02:02.408Z,2.7
2023-01-11T08:04:03.597Z,3.1
2023-01-11T08:06:02.460Z,3.1
2023-01-11T08:08:03.171Z,2.5
2023-01-11T08:10:03.520Z,4.0
2023-01-11T08:12:12.665Z,4.5
2023-01-11T08:14:11.874Z,4.4
2023-01-11T08:16:02.544Z,4.4
2023-01-11T08:18:03.389Z,3.0
2023-01-11T08:20:02.516Z,4.6
2023-01-11T08:22:03.100Z,3.8
2023-01-11T08:24:02.690Z,3.3
2023-01-11T08:26:03.707Z,2.9
2023-01-11T08:28:05.363Z,3.2
2023-01-11T08:30:02.537Z,3.7
2023-01-11T08:32:02.398Z,2.7
2023-01-11T08:34:02.626Z,3.4
2023-01-11T08:36:05.785Z,3.5
2023-01-11T08:38:03.082Z,5.2
2023-01-11T08:40:03.150Z,2.8
2023-01-11T08:42:03.162Z,3.1
2023-01-11T08:44:02.512Z,3.0
2023-01-11T08:46:03.051Z,3.2
2023-01-11T08:48:02.853Z,3.4
2023-01-11T08:50:02.419Z,3.9
2023-01-11T08:52:02.828Z,3.4
2023-01-11T08:54:02.558Z,3.4
2023-01-11T08:56:03.015Z,3.6
2023-01-11T08:58:03.268Z,3.3
2023-01-11T09:00:04.956Z,3.2
2023-01-11T09:02:02.615Z,2.8
2023-01-11T09:04:09.402Z,3.1
2023-01-11T09:06:02.622Z,3.3
2023-01-11T09:08:02.419Z,5.8
2023-01-11T09:10:02.514Z,3.1
2023-01-11T09:12:05.836Z,3.0
2023-01-11T09:14:03.520Z,2.9
2023-01-11T09:16:02.483Z,3.1
2023-01-11T09:18:02.972Z,1.9
2023-01-11T09:20:02.463Z,2.8
2023-01-11T09:22:02.930Z,2.5
2023-01-11T09:24:04.215Z,3.3
2023-01-11T09:26:02.470Z,3.8
2023-01-11T09:28:02.582Z,3.4
2023-01-11T09:30:02.496Z,3.6
2023-01-11T09:32:02.409Z,2.2
2023-01-11T09:34:04.372Z,3.5
2023-01-11T09:36:02.646Z,2.4
2023-01-11T09:38:02.395Z,2.9
2023-01-11T09:40:03.059Z,3.1
2023-01-11T09:42:12.335Z,2.4
2023-01-11T09:44:13.855Z,3.6
2023-01-11T09:46:08.356Z,4.4
2023-01-11T09:48:11.245Z,2.9
2023-01-11T09:50:07.773Z,3.3
2023-01-11T09:52:17.735Z,3.6
2023-01-11T09:54:05.817Z,2.6
2023-01-11T09:56:04.991Z,2.4
2023-01-11T09:58:19.712Z,2.8
2023-01-11T10:00:14.124Z,3.6
2023-01-11T10:02:17.629Z,3.7
2023-01-11T10:04:25.574Z,3.7
2023-01-11T10:06:14.537Z,3.1
2023-01-11T10:18:22.885Z,2.5
2023-01-11T10:18:39.623Z,4.4
2023-01-11T10:18:45.424Z,2.5
2023-01-11T10:20:14.559Z,4.1
2023-01-11T10:22:11.744Z,2.9
2023-01-11T10:24:12.136Z,3.4
2023-01-11T10:26:12.197Z,2.0
2023-01-11T10:28:07.152Z,2.2
2023-01-11T10:30:18.482Z,4.7
2023-01-11T10:32:12.457Z,3.7
2023-01-11T10:34:15.144Z,3.4
2023-01-11T10:36:21.339Z,2.8
2023-01-11T10:38:19.142Z,3.3
2023-01-11T10:40:24.324Z,3.2
2023-01-11T10:42:10.040Z,3.4
2023-01-11T10:44:12.908Z,2.6
2023-01-11T10:46:08.809Z,6.2
2023-01-11T10:48:07.652Z,3.2
2023-01-11T10:50:15.307Z,2.5
2023-01-11T10:52:14.831Z,4.6
2023-01-11T10:54:13.796Z,3.7
2023-01-11T10:56:08.777Z,4.3
2023-01-11T10:58:11.961Z,2.8
2023-01-11T11:00:13.403Z,2.7
2023-01-11T11:02:20.452Z,4.6
2023-01-11T11:04:19.767Z,3.4
2023-01-11T11:06:12.860Z,3.0
2023-01-11T11:08:09.607Z,2.5
2023-01-11T11:10:13.512Z,2.5
2023-01-11T11:12:10.388Z,3.0
2023-01-11T11:14:09.321Z,3.2
2023-01-11T11:16:08.015Z,3.2
2023-01-11T11:18:02.675Z,3.1
2023-01-11T11:20:12.976Z,2.6
2023-01-11T11:22:02.486Z,4.7
2023-01-11T11:24:07.941Z,2.5
2023-01-11T11:26:05.969Z,4.9
2023-01-11T11:28:05.030Z,2.4
2023-01-11T11:30:02.994Z,2.8
2023-01-11T11:32:03.552Z,2.0
2023-01-11T11:34:06.755Z,4.2
2023-01-11T11:36:05.398Z,2.8
2023-01-11T11:38:03.391Z,2.5
2023-01-11T11:40:03.971Z,3.2
2023-01-11T11:42:07.955Z,2.4
2023-01-11T11:44:16.924Z,2.8
2023-01-11T11:46:04.460Z,3.2
2023-01-11T11:48:06.174Z,2.4
2023-01-11T11:50:42.468Z,3.8
2023-01-11T11:52:05.576Z,2.8
2023-01-11T11:54:03.116Z,2.3
2023-01-11T11:56:07.733Z,1.9
2023-01-11T11:58:08.171Z,2.2
2023-01-11T12:00:06.168Z,2.6
2023-01-11T12:02:05.732Z,2.4
2023-01-11T12:04:14.224Z,3.5
2023-01-11T12:06:07.029Z,1.6
2023-01-11T12:08:03.980Z,3.2
2023-01-11T12:10:09.334Z,2.5
2023-01-11T12:12:04.249Z,2.1
2023-01-11T12:14:14.188Z,1.9
2023-01-11T12:16:05.732Z,1.9
2023-01-11T12:18:21.488Z,2.5
2023-01-11T12:20:12.478Z,1.8
2023-01-11T12:22:15.802Z,2.3
2023-01-11T12:24:16.923Z,3.2
2023-01-11T12:26:12.845Z,2.9
2023-01-11T12:28:10.173Z,1.8
2023-01-11T12:30:10.368Z,2.5
2023-01-11T12:32:13.180Z,3.1
2023-01-11T12:34:13.680Z,2.1
2023-01-11T12:36:07.991Z,2.0
2023-01-11T12:38:18.330Z,2.4
2023-01-11T12:40:13.856Z,2.9
2023-01-11T12:42:21.694Z,3.7
2023-01-11T12:44:06.442Z,2.0
2023-01-11T12:46:10.669Z,3.5
2023-01-11T12:48:18.651Z,2.6
2023-01-11T12:50:12.607Z,2.6
2023-01-11T12:52:18.175Z,1.6
2023-01-11T12:54:20.004Z,4.6
2023-01-11T12:56:21.467Z,2.6
2023-01-11T12:58:08.474Z,2.6
2023-01-11T13:00:13.664Z,3.7
2023-01-11T13:02:20.383Z,3.3
2023-01-11T13:04:21.621Z,4.2
2023-01-11T13:06:09.189Z,4.2
2023-01-11T13:08:12.570Z,2.6
2023-01-11T13:10:13.280Z,1.9
2023-01-11T13:12:10.415Z,2.5
2023-01-11T13:14:14.623Z,3.7
2023-01-11T13:16:12.876Z,3.2
2023-01-11T13:18:14.686Z,2.1
2023-01-11T13:20:20.251Z,3.3
2023-01-11T13:22:04.939Z,2.9
2023-01-11T13:24:09.671Z,2.8
2023-01-11T13:26:13.867Z,3.6
2023-01-11T13:28:20.149Z,3.1
2023-01-11T13:30:04.097Z,3.1
2023-01-11T13:32:11.661Z,3.4
2023-01-11T13:34:07.489Z,3.9
2023-01-11T13:36:21.793Z,1.8
2023-01-11T13:38:11.722Z,3.8
2023-01-11T13:40:08.164Z,1.5
2023-01-11T13:42:08.036Z,2.5
2023-01-11T13:44:12.708Z,2.7
2023-01-11T13:46:10.784Z,2.5
2023-01-11T13:48:14.436Z,2.6
2023-01-11T13:50:10.434Z,3.1
2023-01-11T13:52:11.029Z,3.2
2023-01-11T13:54:09.408Z,4.2
2023-01-11T13:56:11.200Z,1.8
2023-01-11T13:58:10.131Z,2.2
2023-01-11T14:00:15.037Z,2.4
2023-01-11T14:02:11.901Z,2.4
2023-01-11T14:04:10.977Z,6.0
2023-01-11T14:06:18.382Z,2.8
2023-01-11T14:08:15.269Z,2.1
2023-01-11T14:10:20.037Z,3.9
2023-01-11T14:12:08.761Z,2.3
2023-01-11T14:14:21.477Z,3.2
2023-01-11T14:16:09.342Z,4.7
2023-01-11T14:18:13.088Z,3.0
2023-01-11T14:20:12.310Z,2.4
2023-01-11T14:22:12.947Z,2.7
2023-01-11T14:24:05.754Z,2.8
2023-01-11T14:26:21.466Z,2.1
2023-01-11T14:28:15.469Z,2.9
2023-01-11T14:30:16.849Z,3.5
2023-01-11T14:32:21.832Z,1.4
2023-01-11T14:34:21.446Z,2.5
2023-01-11T14:36:21.045Z,1.8
2023-01-11T14:38:21.141Z,3.7
2023-01-11T14:40:21.755Z,3.0
2023-01-11T14:42:31.187Z,2.1
2023-01-11T14:44:13.478Z,2.6
2023-01-11T14:46:21.509Z,1.9
2023-01-11T14:48:21.390Z,3.4
2023-01-11T14:50:14.482Z,2.4
2023-01-11T14:52:07.135Z,2.0
2023-01-11T14:54:08.764Z,3.3
2023-01-11T14:56:02.592Z,4.4
2023-01-11T14:58:05.271Z,2.0
2023-01-11T15:00:02.843Z,2.6
2023-01-11T15:02:15.572Z,3.9
2023-01-11T15:04:02.406Z,2.7
2023-01-11T15:06:13.273Z,3.6
2023-01-11T15:08:21.533Z,2.1
2023-01-11T15:10:08.086Z,3.9
2023-01-11T15:12:12.856Z,3.4
2023-01-11T15:14:15.439Z,5.6
2023-01-11T15:16:26.909Z,2.8
2023-01-11T15:18:11.883Z,1.8
2023-01-11T15:20:08.196Z,2.1
2023-01-11T15:22:06.239Z,4.3
2023-01-11T15:24:02.836Z,2.9
2023-01-11T15:26:05.527Z,3.1
2023-01-11T15:28:14.576Z,2.2
2023-01-11T15:30:05.498Z,1.9
2023-01-11T15:32:14.043Z,2.4
2023-01-11T15:34:05.940Z,3.1
2023-01-11T15:36:07.495Z,2.9
2023-01-11T15:38:11.830Z,2.9
2023-01-11T15:40:10.055Z,3.3
2023-01-11T15:42:21.525Z,2.2
2023-01-11T15:44:21.494Z,2.1
2023-01-11T15:46:30.964Z,2.6
2023-01-11T15:48:19.633Z,3.0
2023-01-11T15:50:21.657Z,3.8
2023-01-11T15:52:21.449Z,4.4
2023-01-11T15:54:21.505Z,3.1
2023-01-11T15:56:21.511Z,3.0
2023-01-11T15:58:23.882Z,2.2
2023-01-11T16:00:21.550Z,3.3
2023-01-11T16:02:21.666Z,2.2
2023-01-11T16:04:14.173Z,2.8
2023-01-11T16:06:15.850Z,2.8
2023-01-11T16:08:14.347Z,3.9
2023-01-11T16:10:19.924Z,1.5
2023-01-11T16:12:20.432Z,2.5
2023-01-11T16:14:13.532Z,2.5
2023-01-11T16:16:15.911Z,3.1
2023-01-11T16:18:12.293Z,3.5
2023-01-11T16:20:21.128Z,3.6
2023-01-11T16:22:05.163Z,3.4
2023-01-11T16:24:06.183Z,2.0
2023-01-11T16:26:04.795Z,2.0
2023-01-11T16:28:03.855Z,3.4
2023-01-11T16:30:02.844Z,2.1
2023-01-11T16:32:05.047Z,3.3
2023-01-11T16:34:07.447Z,4.0
2023-01-11T16:36:07.440Z,3.6
2023-01-11T16:38:03.541Z,4.5
2023-01-11T16:40:13.144Z,3.5
2023-01-11T16:42:05.427Z,2.9
2023-01-11T16:44:07.280Z,4.4
2023-01-11T16:46:03.288Z,3.4
2023-01-11T16:48:05.603Z,4.5
2023-01-11T16:50:21.099Z,3.1
2023-01-11T16:52:21.475Z,2.3
2023-01-11T16:54:04.254Z,2.7
2023-01-11T16:56:07.173Z,5.5
2023-01-11T16:58:05.894Z,1.8
2023-01-11T17:00:06.863Z,3.2
2023-01-11T17:02:03.857Z,5.0
2023-01-11T17:04:04.961Z,3.6
2023-01-11T17:06:17.658Z,2.4
2023-01-11T17:08:21.460Z,3.2
2023-01-11T17:10:16.116Z,3.6
2023-01-11T17:12:02.534Z,3.6
2023-01-11T17:14:21.471Z,5.9
2023-01-11T17:16:09.568Z,4.2
2023-01-11T17:18:03.890Z,4.2
2023-01-11T17:20:04.366Z,2.9
2023-01-11T17:22:07.306Z,3.9
2023-01-11T17:24:05.461Z,3.0
2023-01-11T17:26:02.840Z,3.4
2023-01-11T17:28:05.487Z,2.6
2023-01-11T17:30:05.153Z,2.1
2023-01-11T17:32:05.871Z,3.2
2023-01-11T17:34:05.720Z,3.6
2023-01-11T17:36:03.865Z,4.0
2023-01-11T17:38:06.000Z,4.9
2023-01-11T17:40:03.687Z,3.2
2023-01-11T17:42:15.831Z,2.1
2023-01-11T17:44:13.500Z,2.8
2023-01-11T17:46:04.889Z,2.2
2023-01-11T17:48:12.478Z,2.7
2023-01-11T17:50:04.337Z,5.0
2023-01-11T17:52:17.056Z,2.1
2023-01-11T17:54:03.396Z,3.3
2023-01-11T17:56:04.239Z,3.3
2023-01-11T17:58:18.178Z,4.9
2023-01-11T18:00:21.525Z,3.4
2023-01-11T18:02:09.634Z,3.0
2023-01-11T18:04:02.439Z,3.3
2023-01-11T18:06:12.775Z,3.0
2023-01-11T18:08:09.177Z,2.4
2023-01-11T18:10:03.904Z,2.7
2023-01-11T18:12:08.534Z,3.6
2023-01-11T18:14:06.365Z,2.7
2023-01-11T18:16:03.988Z,2.2
2023-01-11T18:18:05.545Z,2.7
2023-01-11T18:20:13.949Z,3.4
2023-01-11T18:22:02.526Z,2.9
2023-01-11T18:24:21.517Z,3.1
2023-01-11T18:26:21.461Z,2.6
2023-01-11T18:28:21.573Z,3.0
2023-01-11T18:30:06.206Z,3.8
2023-01-11T18:32:03.541Z,4.0
2023-01-11T18:34:02.517Z,4.3
2023-01-11T18:36:04.614Z,4.6
2023-01-11T18:38:05.936Z,4.6
2023-01-11T18:40:03.275Z,1.9
2023-01-11T18:42:08.574Z,4.3
2023-01-11T18:44:04.405Z,4.7
2023-01-11T18:46:03.035Z,3.4
2023-01-11T18:48:02.488Z,3.6
2023-01-11T18:50:03.912Z,2.5
2023-01-11T18:52:03.183Z,4.1
2023-01-11T18:54:03.368Z,2.7
2023-01-11T18:56:03.244Z,2.4
2023-01-11T18:58:02.500Z,4.2
2023-01-11T19:00:02.768Z,2.9
2023-01-11T19:02:16.954Z,2.6
2023-01-11T19:04:02.666Z,4.8
2023-01-11T19:06:02.738Z,4.6
2023-01-11T19:08:03.669Z,2.7
2023-01-11T19:10:02.532Z,3.6
2023-01-11T19:12:02.529Z,4.4
2023-01-11T19:14:02.420Z,3.3
2023-01-11T19:16:03.007Z,3.5
2023-01-11T19:18:03.431Z,4.8
2023-01-11T19:20:03.784Z,3.0
2023-01-11T19:22:02.477Z,2.9
2023-01-11T19:24:03.236Z,3.9
2023-01-11T19:26:02.430Z,5.5
2023-01-11T19:28:03.968Z,4.4
2023-01-11T19:30:02.452Z,4.1
2023-01-11T19:32:02.760Z,2.6
2023-01-11T19:34:02.462Z,2.7
2023-01-11T19:36:07.355Z,5.7
2023-01-11T19:38:03.007Z,2.6
2023-01-11T19:40:03.142Z,4.2
2023-01-11T19:42:02.743Z,3.5
2023-01-11T19:44:02.709Z,2.1
2023-01-11T19:46:03.609Z,3.0
2023-01-11T19:48:02.491Z,2.4
2023-01-11T19:50:02.537Z,3.3
2023-01-11T19:52:02.857Z,4.4
2023-01-11T19:54:03.066Z,5.1
2023-01-11T19:56:04.095Z,3.6
2023-01-11T19:58:02.403Z,3.4
2023-01-11T20:00:03.973Z,3.6
2023-01-11T20:02:02.467Z,3.0
2023-01-11T20:04:02.937Z,3.3
2023-01-11T20:06:07.270Z,3.6
2023-01-11T20:08:02.726Z,2.5
2023-01-11T20:10:02.439Z,6.1
2023-01-11T20:12:02.527Z,2.5
2023-01-11T20:14:02.449Z,2.3
2023-01-11T20:16:05.987Z,2.8
2023-01-11T20:18:02.542Z,2.6
2023-01-11T20:20:02.757Z,3.2
2023-01-11T20:22:03.330Z,3.5
2023-01-11T20:24:03.236Z,3.5
2023-01-11T20:26:04.204Z,2.8
2023-01-11T20:28:02.857Z,5.7
2023-01-11T20:30:02.697Z,3.8
2023-01-11T20:32:24.653Z,3.6
2023-01-11T20:34:06.422Z,4.3
2023-01-11T20:36:10.847Z,3.9
2023-01-11T20:38:02.443Z,4.5
2023-01-11T20:40:03.098Z,2.8
2023-01-11T20:42:02.676Z,3.8
2023-01-11T20:44:03.935Z,2.8
2023-01-11T20:46:02.546Z,2.5
2023-01-11T20:48:02.581Z,2.7
2023-01-11T20:50:03.266Z,3.1
2023-01-11T20:52:03.425Z,2.1
2023-01-11T20:54:04.910Z,2.1
2023-01-11T20:56:05.421Z,3.5
2023-01-11T20:58:02.700Z,2.7
2023-01-11T21:00:02.610Z,2.8
2023-01-11T21:02:02.601Z,2.7
2023-01-11T21:04:05.963Z,3.2
2023-01-11T21:06:04.421Z,4.0
2023-01-11T21:08:02.544Z,2.1
2023-01-11T21:10:02.544Z,3.3
2023-01-11T21:12:02.609Z,2.6
2023-01-11T21:14:04.304Z,3.0
2023-01-11T21:16:07.164Z,3.4
2023-01-11T21:18:03.501Z,2.6
2023-01-11T21:20:03.784Z,2.4
2023-01-11T21:22:02.444Z,2.7
2023-01-11T21:24:05.145Z,2.5
2023-01-11T21:26:04.449Z,1.9
2023-01-11T21:28:03.620Z,2.5
2023-01-11T21:30:02.759Z,2.0
2023-01-11T21:32:03.358Z,3.3
2023-01-11T21:34:04.028Z,3.8
2023-01-11T21:36:03.540Z,2.8
2023-01-11T21:38:02.977Z,2.8
2023-01-11T21:40:03.476Z,2.3
2023-01-11T21:42:03.278Z,2.3
2023-01-11T21:44:02.494Z,4.1
2023-01-11T21:46:04.215Z,1.8
2023-01-11T21:48:02.491Z,1.8
2023-01-11T21:50:03.281Z,3.4
2023-01-11T21:52:03.463Z,2.2
2023-01-11T21:54:06.406Z,3.5
2023-01-11T21:56:03.159Z,1.8
2023-01-11T21:58:02.600Z,3.4
2023-01-11T22:00:04.116Z,1.8
2023-01-11T22:02:02.450Z,2.2
2023-01-11T22:04:06.213Z,3.5
2023-01-11T22:06:04.229Z,2.8
2023-01-11T22:08:03.261Z,1.9
2023-01-11T22:10:05.157Z,4.0
2023-01-11T22:12:02.505Z,2.0
2023-01-11T22:14:06.206Z,2.4
2023-01-11T22:16:06.060Z,2.1
2023-01-11T22:18:03.411Z,3.0
2023-01-11T22:20:02.480Z,2.2
2023-01-11T22:22:02.415Z,3.5
2023-01-11T22:24:02.824Z,2.9
2023-01-11T22:26:05.144Z,3.0
2023-01-11T22:28:03.551Z,3.3
2023-01-11T22:30:02.928Z,3.7
2023-01-11T22:32:03.904Z,3.5
2023-01-11T22:34:02.970Z,4.7
2023-01-11T22:36:04.046Z,3.5
2023-01-11T22:38:03.040Z,3.3
2023-01-11T22:40:02.676Z,3.1
2023-01-11T22:42:03.445Z,4.5
2023-01-11T22:44:02.878Z,2.9
2023-01-11T22:46:02.761Z,3.3
2023-01-11T22:48:03.221Z,3.4
2023-01-11T22:50:02.483Z,2.6
2023-01-11T22:52:02.667Z,3.1
2023-01-11T22:54:04.567Z,4.2
2023-01-11T22:56:02.456Z,4.7
2023-01-11T22:58:02.970Z,3.9
2023-01-11T23:00:04.234Z,5.2
2023-01-11T23:02:02.994Z,4.0
2023-01-11T23:04:04.715Z,3.8
2023-01-11T23:06:02.838Z,4.1
2023-01-11T23:08:02.425Z,4.7
2023-01-11T23:10:04.240Z,3.9
2023-01-11T23:12:12.487Z,4.0
2023-01-11T23:14:03.859Z,4.3
2023-01-11T23:16:02.668Z,3.9
2023-01-11T23:18:03.641Z,4.9
2023-01-11T23:20:02.419Z,4.1
2023-01-11T23:22:02.621Z,4.5
2023-01-11T23:24:03.825Z,4.0
2023-01-11T23:26:02.488Z,4.0
2023-01-11T23:28:03.827Z,3.7
2023-01-11T23:30:03.823Z,4.8
2023-01-11T23:32:03.079Z,3.4
2023-01-11T23:34:03.968Z,3.8
2023-01-11T23:36:04.173Z,3.4
2023-01-11T23:38:02.433Z,4.5
2023-01-11T23:40:03.144Z,3.7
2023-01-11T23:42:12.248Z,2.9
2023-01-11T23:44:05.760Z,3.8
2023-01-11T23:46:13.411Z,4.1
2023-01-11T23:48:03.970Z,3.9
2023-01-11T23:50:02.483Z,4.2
2023-01-11T23:52:04.397Z,2.9
2023-01-11T23:54:04.711Z,3.2
2023-01-11T23:56:02.438Z,3.1
2023-01-11T23:58:09.756Z,3.8
